sensor_id;sensor_type;location;lat;lon;timestamp;P1;durP1;ratioP1;P2;durP2;ratioP2
64816;SDS011;53289;45.602;11.904;2023-02-23T00:00:16;97.05;;;49.00;;
64816;SDS011;53289;45.602;11.904;2023-02-23T00:02:52;90.65;;;45.58;;
64816;SDS011;53289;45.602;11.904;2023-02-23T00:05:26;100.70;;;49.63;;
64816;SDS011;53289;45.602;11.904;2023-02-23T00:07:54;91.55;;;46.85;;
64816;SDS011;53289;45.602;11.904;2023-02-23T00:10:20;92.82;;;48.75;;
64816;SDS011;53289;45.602;11.904;2023-02-23T00:12:49;101.30;;;51.90;;
64816;SDS011;53289;45.602;11.904;2023-02-23T00:15:16;100.72;;;49.58;;
64816;SDS011;53289;45.602;11.904;2023-02-23T00:17:42;92.22;;;46.60;;
64816;SDS011;53289;45.602;11.904;2023-02-23T00:20:10;86.97;;;45.08;;
64816;SDS011;53289;45.602;11.904;2023-02-23T00:22:37;117.28;;;55.72;;
64816;SDS011;53289;45.602;11.904;2023-02-23T00:25:05;87.85;;;45.17;;
64816;SDS011;53289;45.602;11.904;2023-02-23T00:27:35;94.13;;;48.38;;
64816;SDS011;53289;45.602;11.904;2023-02-23T00:30:09;89.28;;;46.58;;
64816;SDS011;53289;45.602;11.904;2023-02-23T00:32:38;97.95;;;47.85;;
64816;SDS011;53289;45.602;11.904;2023-02-23T00:35:05;111.22;;;53.15;;
64816;SDS011;53289;45.602;11.904;2023-02-23T00:37:43;124.80;;;60.22;;
64816;SDS011;53289;45.602;11.904;2023-02-23T00:40:12;98.57;;;48.70;;
64816;SDS011;53289;45.602;11.904;2023-02-23T00:42:43;118.45;;;56.53;;
64816;SDS011;53289;45.602;11.904;2023-02-23T00:45:10;123.30;;;60.47;;
64816;SDS011;53289;45.602;11.904;2023-02-23T00:47:40;111.72;;;51.60;;
64816;SDS011;53289;45.602;11.904;2023-02-23T00:50:09;95.93;;;49.17;;
64816;SDS011;53289;45.602;11.904;2023-02-23T00:52:38;100.30;;;49.63;;
64816;SDS011;53289;45.602;11.904;2023-02-23T00:55:06;92.32;;;47.00;;
64816;SDS011;53289;45.602;11.904;2023-02-23T00:57:33;100.72;;;48.63;;
64816;SDS011;53289;45.602;11.904;2023-02-23T00:59:59;94.75;;;47.58;;
64816;SDS011;53289;45.602;11.904;2023-02-23T01:02:25;93.60;;;44.50;;
64816;SDS011;53289;45.602;11.904;2023-02-23T01:04:55;117.13;;;57.53;;
64816;SDS011;53289;45.602;11.904;2023-02-23T01:07:21;96.70;;;47.83;;
64816;SDS011;53289;45.602;11.904;2023-02-23T01:09:50;103.47;;;51.25;;
64816;SDS011;53289;45.602;11.904;2023-02-23T01:12:16;122.15;;;58.92;;
64816;SDS011;53289;45.602;11.904;2023-02-23T01:14:42;102.60;;;50.15;;
64816;SDS011;53289;45.602;11.904;2023-02-23T01:17:08;107.43;;;53.97;;
64816;SDS011;53289;45.602;11.904;2023-02-23T01:19:34;125.40;;;61.50;;
64816;SDS011;53289;45.602;11.904;2023-02-23T01:22:00;115.10;;;56.35;;
64816;SDS011;53289;45.602;11.904;2023-02-23T01:24:27;104.47;;;50.85;;
64816;SDS011;53289;45.602;11.904;2023-02-23T01:26:53;93.93;;;47.13;;
64816;SDS011;53289;45.602;11.904;2023-02-23T01:29:19;113.22;;;57.33;;
64816;SDS011;53289;45.602;11.904;2023-02-23T01:31:46;110.22;;;55.22;;
64816;SDS011;53289;45.602;11.904;2023-02-23T01:34:15;103.65;;;49.30;;
64816;SDS011;53289;45.602;11.904;2023-02-23T01:36:42;97.00;;;49.92;;
64816;SDS011;53289;45.602;11.904;2023-02-23T01:39:12;97.70;;;49.25;;
64816;SDS011;53289;45.602;11.904;2023-02-23T01:41:40;101.63;;;50.42;;
64816;SDS011;53289;45.602;11.904;2023-02-23T01:44:07;86.28;;;46.92;;
64816;SDS011;53289;45.602;11.904;2023-02-23T01:46:55;87.95;;;46.33;;
64816;SDS011;53289;45.602;11.904;2023-02-23T01:49:23;92.38;;;47.47;;
64816;SDS011;53289;45.602;11.904;2023-02-23T01:51:54;89.43;;;44.92;;
64816;SDS011;53289;45.602;11.904;2023-02-23T01:54:36;93.75;;;48.15;;
64816;SDS011;53289;45.602;11.904;2023-02-23T01:57:06;90.03;;;47.80;;
64816;SDS011;53289;45.602;11.904;2023-02-23T01:59:42;89.68;;;45.03;;
64816;SDS011;53289;45.602;11.904;2023-02-23T02:02:10;121.97;;;58.10;;
64816;SDS011;53289;45.602;11.904;2023-02-23T02:04:38;107.65;;;51.40;;
64816;SDS011;53289;45.602;11.904;2023-02-23T02:07:12;97.18;;;47.50;;
64816;SDS011;53289;45.602;11.904;2023-02-23T02:09:43;88.68;;;44.63;;
64816;SDS011;53289;45.602;11.904;2023-02-23T02:12:25;94.60;;;46.95;;
64816;SDS011;53289;45.602;11.904;2023-02-23T02:14:51;102.15;;;49.25;;
64816;SDS011;53289;45.602;11.904;2023-02-23T02:29:12;76.82;;;42.70;;
64816;SDS011;53289;45.602;11.904;2023-02-23T02:37:19;85.85;;;42.75;;
64816;SDS011;53289;45.602;11.904;2023-02-23T02:40:12;84.38;;;41.50;;
64816;SDS011;53289;45.602;11.904;2023-02-23T02:43:05;75.07;;;40.08;;
64816;SDS011;53289;45.602;11.904;2023-02-23T02:48:28;78.80;;;39.97;;
64816;SDS011;53289;45.602;11.904;2023-02-23T02:54:05;86.78;;;43.70;;
64816;SDS011;53289;45.602;11.904;2023-02-23T02:56:39;79.30;;;42.47;;
64816;SDS011;53289;45.602;11.904;2023-02-23T02:59:14;94.70;;;42.33;;
64816;SDS011;53289;45.602;11.904;2023-02-23T03:02:02;69.13;;;35.90;;
64816;SDS011;53289;45.602;11.904;2023-02-23T03:04:49;72.82;;;38.70;;
64816;SDS011;53289;45.602;11.904;2023-02-23T03:07:41;76.88;;;39.08;;
64816;SDS011;53289;45.602;11.904;2023-02-23T03:17:00;91.57;;;43.08;;
64816;SDS011;53289;45.602;11.904;2023-02-23T03:19:59;86.00;;;43.05;;
64816;SDS011;53289;45.602;11.904;2023-02-23T03:23:26;85.55;;;39.63;;
64816;SDS011;53289;45.602;11.904;2023-02-23T03:26:15;73.05;;;36.72;;
64816;SDS011;53289;45.602;11.904;2023-02-23T03:32:10;113.18;;;55.83;;
64816;SDS011;53289;45.602;11.904;2023-02-23T03:38:18;115.30;;;54.70;;
64816;SDS011;53289;45.602;11.904;2023-02-23T03:41:17;74.30;;;39.95;;
64816;SDS011;53289;45.602;11.904;2023-02-23T03:44:06;77.93;;;40.58;;
64816;SDS011;53289;45.602;11.904;2023-02-23T03:46:55;94.90;;;44.25;;
64816;SDS011;53289;45.602;11.904;2023-02-23T03:49:41;92.93;;;43.35;;
64816;SDS011;53289;45.602;11.904;2023-02-23T03:52:29;86.88;;;43.40;;
64816;SDS011;53289;45.602;11.904;2023-02-23T03:55:20;74.00;;;39.10;;
64816;SDS011;53289;45.602;11.904;2023-02-23T03:58:10;91.32;;;43.38;;
64816;SDS011;53289;45.602;11.904;2023-02-23T04:01:00;102.95;;;48.00;;
64816;SDS011;53289;45.602;11.904;2023-02-23T04:03:46;101.60;;;47.80;;
64816;SDS011;53289;45.602;11.904;2023-02-23T04:06:35;109.47;;;53.35;;
64816;SDS011;53289;45.602;11.904;2023-02-23T04:09:22;101.25;;;49.75;;
64816;SDS011;53289;45.602;11.904;2023-02-23T04:17:38;100.30;;;49.42;;
64816;SDS011;53289;45.602;11.904;2023-02-23T04:20:04;86.63;;;46.13;;
64816;SDS011;53289;45.602;11.904;2023-02-23T04:22:31;108.07;;;50.33;;
64816;SDS011;53289;45.602;11.904;2023-02-23T04:24:57;94.18;;;47.53;;
64816;SDS011;53289;45.602;11.904;2023-02-23T04:27:23;104.32;;;49.85;;
64816;SDS011;53289;45.602;11.904;2023-02-23T04:29:49;98.53;;;47.25;;
64816;SDS011;53289;45.602;11.904;2023-02-23T04:32:16;93.55;;;46.70;;
64816;SDS011;53289;45.602;11.904;2023-02-23T04:34:45;116.35;;;53.08;;
64816;SDS011;53289;45.602;11.904;2023-02-23T04:37:11;93.72;;;48.47;;
64816;SDS011;53289;45.602;11.904;2023-02-23T04:39:38;86.18;;;44.00;;
64816;SDS011;53289;45.602;11.904;2023-02-23T04:42:04;88.68;;;47.17;;
64816;SDS011;53289;45.602;11.904;2023-02-23T04:44:30;101.35;;;48.30;;
64816;SDS011;53289;45.602;11.904;2023-02-23T04:46:56;106.97;;;51.05;;
64816;SDS011;53289;45.602;11.904;2023-02-23T04:49:22;109.47;;;49.35;;
64816;SDS011;53289;45.602;11.904;2023-02-23T04:51:48;105.20;;;48.92;;
64816;SDS011;53289;45.602;11.904;2023-02-23T04:54:14;106.40;;;48.40;;
64816;SDS011;53289;45.602;11.904;2023-02-23T04:56:40;98.55;;;47.05;;
64816;SDS011;53289;45.602;11.904;2023-02-23T04:59:06;129.15;;;61.08;;
64816;SDS011;53289;45.602;11.904;2023-02-23T05:01:32;114.65;;;55.03;;
64816;SDS011;53289;45.602;11.904;2023-02-23T05:03:58;112.57;;;55.75;;
64816;SDS011;53289;45.602;11.904;2023-02-23T05:06:26;118.22;;;55.63;;
64816;SDS011;53289;45.602;11.904;2023-02-23T05:08:52;120.47;;;57.78;;
64816;SDS011;53289;45.602;11.904;2023-02-23T05:11:18;115.70;;;53.88;;
64816;SDS011;53289;45.602;11.904;2023-02-23T05:13:44;108.03;;;53.45;;
64816;SDS011;53289;45.602;11.904;2023-02-23T05:16:10;120.13;;;60.10;;
64816;SDS011;53289;45.602;11.904;2023-02-23T05:18:36;108.57;;;51.20;;
64816;SDS011;53289;45.602;11.904;2023-02-23T05:21:03;115.35;;;54.40;;
64816;SDS011;53289;45.602;11.904;2023-02-23T05:23:32;94.05;;;48.58;;
64816;SDS011;53289;45.602;11.904;2023-02-23T05:26:06;114.13;;;52.83;;
64816;SDS011;53289;45.602;11.904;2023-02-23T05:28:34;118.65;;;54.17;;
64816;SDS011;53289;45.602;11.904;2023-02-23T05:31:01;118.82;;;54.42;;
64816;SDS011;53289;45.602;11.904;2023-02-23T05:33:29;91.90;;;48.08;;
64816;SDS011;53289;45.602;11.904;2023-02-23T05:35:56;95.93;;;47.53;;
64816;SDS011;53289;45.602;11.904;2023-02-23T05:38:22;119.65;;;57.70;;
64816;SDS011;53289;45.602;11.904;2023-02-23T05:40:48;90.40;;;47.70;;
64816;SDS011;53289;45.602;11.904;2023-02-23T05:43:14;100.95;;;50.42;;
64816;SDS011;53289;45.602;11.904;2023-02-23T05:45:40;99.38;;;50.40;;
64816;SDS011;53289;45.602;11.904;2023-02-23T05:48:07;110.00;;;54.00;;
64816;SDS011;53289;45.602;11.904;2023-02-23T05:50:33;87.18;;;45.03;;
64816;SDS011;53289;45.602;11.904;2023-02-23T05:53:00;90.47;;;47.50;;
64816;SDS011;53289;45.602;11.904;2023-02-23T05:55:25;79.57;;;39.40;;
64816;SDS011;53289;45.602;11.904;2023-02-23T05:57:52;89.53;;;48.30;;
64816;SDS011;53289;45.602;11.904;2023-02-23T06:00:18;93.90;;;48.95;;
64816;SDS011;53289;45.602;11.904;2023-02-23T06:02:44;129.48;;;60.15;;
64816;SDS011;53289;45.602;11.904;2023-02-23T06:05:11;122.32;;;58.95;;
64816;SDS011;53289;45.602;11.904;2023-02-23T06:07:38;109.00;;;55.55;;
64816;SDS011;53289;45.602;11.904;2023-02-23T06:10:04;114.05;;;53.38;;
64816;SDS011;53289;45.602;11.904;2023-02-23T06:12:31;100.80;;;51.30;;
64816;SDS011;53289;45.602;11.904;2023-02-23T06:14:57;92.10;;;47.88;;
64816;SDS011;53289;45.602;11.904;2023-02-23T06:17:23;96.22;;;51.17;;
64816;SDS011;53289;45.602;11.904;2023-02-23T06:19:50;93.47;;;48.22;;
64816;SDS011;53289;45.602;11.904;2023-02-23T06:22:16;83.38;;;44.90;;
64816;SDS011;53289;45.602;11.904;2023-02-23T06:24:42;86.80;;;45.70;;
64816;SDS011;53289;45.602;11.904;2023-02-23T06:27:08;101.18;;;50.63;;
64816;SDS011;53289;45.602;11.904;2023-02-23T06:29:35;81.97;;;44.55;;
64816;SDS011;53289;45.602;11.904;2023-02-23T06:32:01;98.03;;;48.30;;
64816;SDS011;53289;45.602;11.904;2023-02-23T06:34:28;96.88;;;50.97;;
64816;SDS011;53289;45.602;11.904;2023-02-23T06:36:54;94.55;;;48.33;;
64816;SDS011;53289;45.602;11.904;2023-02-23T06:39:20;103.30;;;52.25;;
64816;SDS011;53289;45.602;11.904;2023-02-23T06:41:46;100.18;;;51.65;;
64816;SDS011;53289;45.602;11.904;2023-02-23T06:44:12;110.38;;;55.58;;
64816;SDS011;53289;45.602;11.904;2023-02-23T06:46:38;93.82;;;49.65;;
64816;SDS011;53289;45.602;11.904;2023-02-23T06:49:04;100.18;;;51.97;;
64816;SDS011;53289;45.602;11.904;2023-02-23T06:51:30;94.95;;;48.15;;
64816;SDS011;53289;45.602;11.904;2023-02-23T06:53:56;92.50;;;50.10;;
64816;SDS011;53289;45.602;11.904;2023-02-23T06:56:22;95.75;;;49.78;;
64816;SDS011;53289;45.602;11.904;2023-02-23T06:58:48;95.10;;;48.47;;
64816;SDS011;53289;45.602;11.904;2023-02-23T07:01:14;90.43;;;47.67;;
64816;SDS011;53289;45.602;11.904;2023-02-23T07:03:41;86.13;;;46.95;;
64816;SDS011;53289;45.602;11.904;2023-02-23T07:06:07;96.55;;;49.65;;
64816;SDS011;53289;45.602;11.904;2023-02-23T07:08:33;83.28;;;47.28;;
64816;SDS011;53289;45.602;11.904;2023-02-23T07:11:09;109.30;;;54.53;;
64816;SDS011;53289;45.602;11.904;2023-02-23T07:13:37;104.35;;;54.95;;
64816;SDS011;53289;45.602;11.904;2023-02-23T07:16:05;93.72;;;51.53;;
64816;SDS011;53289;45.602;11.904;2023-02-23T07:18:31;102.70;;;53.75;;
64816;SDS011;53289;45.602;11.904;2023-02-23T07:20:57;90.43;;;51.63;;
64816;SDS011;53289;45.602;11.904;2023-02-23T07:23:23;103.68;;;55.83;;
64816;SDS011;53289;45.602;11.904;2023-02-23T07:25:50;97.30;;;55.67;;
64816;SDS011;53289;45.602;11.904;2023-02-23T07:28:17;121.38;;;62.72;;
64816;SDS011;53289;45.602;11.904;2023-02-23T07:30:46;93.15;;;50.60;;
64816;SDS011;53289;45.602;11.904;2023-02-23T07:33:14;113.95;;;57.70;;
64816;SDS011;53289;45.602;11.904;2023-02-23T07:35:41;102.88;;;54.92;;
64816;SDS011;53289;45.602;11.904;2023-02-23T07:38:07;101.05;;;50.90;;
64816;SDS011;53289;45.602;11.904;2023-02-23T07:40:33;120.57;;;64.60;;
64816;SDS011;53289;45.602;11.904;2023-02-23T07:42:59;129.73;;;67.05;;
64816;SDS011;53289;45.602;11.904;2023-02-23T07:45:25;134.23;;;66.30;;
64816;SDS011;53289;45.602;11.904;2023-02-23T07:47:51;112.75;;;58.10;;
64816;SDS011;53289;45.602;11.904;2023-02-23T07:50:17;110.60;;;59.55;;
64816;SDS011;53289;45.602;11.904;2023-02-23T07:52:43;118.03;;;60.20;;
64816;SDS011;53289;45.602;11.904;2023-02-23T07:55:09;125.15;;;64.90;;
64816;SDS011;53289;45.602;11.904;2023-02-23T07:57:36;143.73;;;74.38;;
64816;SDS011;53289;45.602;11.904;2023-02-23T08:00:03;116.85;;;63.50;;
64816;SDS011;53289;45.602;11.904;2023-02-23T08:02:31;98.97;;;56.17;;
64816;SDS011;53289;45.602;11.904;2023-02-23T08:04:57;106.05;;;58.30;;
64816;SDS011;53289;45.602;11.904;2023-02-23T08:07:23;119.35;;;61.80;;
64816;SDS011;53289;45.602;11.904;2023-02-23T08:09:52;110.15;;;57.60;;
64816;SDS011;53289;45.602;11.904;2023-02-23T08:12:18;119.18;;;60.10;;
64816;SDS011;53289;45.602;11.904;2023-02-23T08:14:44;116.25;;;60.38;;
64816;SDS011;53289;45.602;11.904;2023-02-23T08:17:10;124.50;;;63.70;;
64816;SDS011;53289;45.602;11.904;2023-02-23T08:19:36;134.18;;;66.38;;
64816;SDS011;53289;45.602;11.904;2023-02-23T08:22:03;134.02;;;68.25;;
64816;SDS011;53289;45.602;11.904;2023-02-23T08:24:29;133.50;;;67.50;;
64816;SDS011;53289;45.602;11.904;2023-02-23T08:26:58;113.47;;;59.00;;
64816;SDS011;53289;45.602;11.904;2023-02-23T08:29:26;108.22;;;58.67;;
64816;SDS011;53289;45.602;11.904;2023-02-23T08:31:52;123.90;;;66.32;;
64816;SDS011;53289;45.602;11.904;2023-02-23T08:34:18;111.25;;;59.58;;
64816;SDS011;53289;45.602;11.904;2023-02-23T08:36:45;116.40;;;63.28;;
64816;SDS011;53289;45.602;11.904;2023-02-23T08:39:11;110.13;;;61.10;;
64816;SDS011;53289;45.602;11.904;2023-02-23T08:41:37;139.70;;;72.18;;
64816;SDS011;53289;45.602;11.904;2023-02-23T08:44:04;125.75;;;64.50;;
64816;SDS011;53289;45.602;11.904;2023-02-23T08:46:30;139.63;;;72.25;;
64816;SDS011;53289;45.602;11.904;2023-02-23T08:48:56;111.25;;;60.47;;
64816;SDS011;53289;45.602;11.904;2023-02-23T08:51:22;131.10;;;67.95;;
64816;SDS011;53289;45.602;11.904;2023-02-23T08:53:48;123.18;;;67.63;;
64816;SDS011;53289;45.602;11.904;2023-02-23T08:56:14;145.80;;;74.45;;
64816;SDS011;53289;45.602;11.904;2023-02-23T08:58:41;112.72;;;58.80;;
64816;SDS011;53289;45.602;11.904;2023-02-23T09:01:13;127.97;;;65.82;;
64816;SDS011;53289;45.602;11.904;2023-02-23T09:03:42;131.70;;;70.07;;
64816;SDS011;53289;45.602;11.904;2023-02-23T09:06:09;130.05;;;70.13;;
64816;SDS011;53289;45.602;11.904;2023-02-23T09:08:38;125.43;;;67.53;;
64816;SDS011;53289;45.602;11.904;2023-02-23T09:11:05;127.07;;;65.30;;
64816;SDS011;53289;45.602;11.904;2023-02-23T09:13:31;137.43;;;70.15;;
64816;SDS011;53289;45.602;11.904;2023-02-23T09:15:57;128.55;;;69.63;;
64816;SDS011;53289;45.602;11.904;2023-02-23T09:18:23;122.57;;;66.63;;
64816;SDS011;53289;45.602;11.904;2023-02-23T09:20:52;113.28;;;60.88;;
64816;SDS011;53289;45.602;11.904;2023-02-23T09:23:18;138.68;;;75.45;;
64816;SDS011;53289;45.602;11.904;2023-02-23T09:25:44;142.82;;;72.57;;
64816;SDS011;53289;45.602;11.904;2023-02-23T09:28:13;115.75;;;60.97;;
64816;SDS011;53289;45.602;11.904;2023-02-23T09:30:41;134.38;;;68.60;;
64816;SDS011;53289;45.602;11.904;2023-02-23T09:33:08;134.15;;;67.43;;
64816;SDS011;53289;45.602;11.904;2023-02-23T09:35:35;116.05;;;63.28;;
64816;SDS011;53289;45.602;11.904;2023-02-23T09:38:02;139.30;;;72.45;;
64816;SDS011;53289;45.602;11.904;2023-02-23T09:40:33;132.82;;;68.40;;
64816;SDS011;53289;45.602;11.904;2023-02-23T09:43:21;130.43;;;67.43;;
64816;SDS011;53289;45.602;11.904;2023-02-23T09:46:26;125.00;;;64.75;;
64816;SDS011;53289;45.602;11.904;2023-02-23T09:48:57;115.30;;;59.25;;
64816;SDS011;53289;45.602;11.904;2023-02-23T09:51:27;124.47;;;65.43;;
64816;SDS011;53289;45.602;11.904;2023-02-23T09:54:01;115.75;;;57.90;;
64816;SDS011;53289;45.602;11.904;2023-02-23T09:56:32;119.00;;;63.00;;
64816;SDS011;53289;45.602;11.904;2023-02-23T09:59:12;109.75;;;57.63;;
64816;SDS011;53289;45.602;11.904;2023-02-23T10:09:58;125.47;;;62.67;;
64816;SDS011;53289;45.602;11.904;2023-02-23T10:23:26;117.05;;;60.50;;
64816;SDS011;53289;45.602;11.904;2023-02-23T10:26:04;114.97;;;60.20;;
64816;SDS011;53289;45.602;11.904;2023-02-23T10:28:33;123.13;;;61.65;;
64816;SDS011;53289;45.602;11.904;2023-02-23T10:31:01;125.18;;;64.32;;
64816;SDS011;53289;45.602;11.904;2023-02-23T10:33:39;115.32;;;58.78;;
64816;SDS011;53289;45.602;11.904;2023-02-23T10:36:11;130.40;;;63.80;;
64816;SDS011;53289;45.602;11.904;2023-02-23T10:38:48;117.43;;;59.92;;
64816;SDS011;53289;45.602;11.904;2023-02-23T10:41:14;115.32;;;59.17;;
64816;SDS011;53289;45.602;11.904;2023-02-23T10:43:40;112.78;;;57.85;;
64816;SDS011;53289;45.602;11.904;2023-02-23T10:46:06;118.13;;;58.80;;
64816;SDS011;53289;45.602;11.904;2023-02-23T10:48:43;109.72;;;56.58;;
64816;SDS011;53289;45.602;11.904;2023-02-23T10:51:21;119.65;;;57.53;;
64816;SDS011;53289;45.602;11.904;2023-02-23T10:53:52;126.43;;;62.25;;
64816;SDS011;53289;45.602;11.904;2023-02-23T10:56:18;123.60;;;60.03;;
64816;SDS011;53289;45.602;11.904;2023-02-23T11:01:32;111.35;;;56.33;;
64816;SDS011;53289;45.602;11.904;2023-02-23T11:06:42;111.22;;;56.55;;
64816;SDS011;53289;45.602;11.904;2023-02-23T11:09:29;109.03;;;54.88;;
64816;SDS011;53289;45.602;11.904;2023-02-23T11:11:59;114.60;;;56.25;;
64816;SDS011;53289;45.602;11.904;2023-02-23T11:14:28;107.28;;;55.55;;
64816;SDS011;53289;45.602;11.904;2023-02-23T11:16:55;105.05;;;54.50;;
64816;SDS011;53289;45.602;11.904;2023-02-23T11:19:34;123.32;;;62.60;;
64816;SDS011;53289;45.602;11.904;2023-02-23T11:22:02;113.93;;;56.25;;
64816;SDS011;53289;45.602;11.904;2023-02-23T11:24:37;108.97;;;54.45;;
64816;SDS011;53289;45.602;11.904;2023-02-23T11:27:06;107.95;;;53.92;;
64816;SDS011;53289;45.602;11.904;2023-02-23T11:29:49;104.32;;;52.60;;
64816;SDS011;53289;45.602;11.904;2023-02-23T11:32:31;105.22;;;52.08;;
64816;SDS011;53289;45.602;11.904;2023-02-23T11:35:24;95.75;;;50.22;;
64816;SDS011;53289;45.602;11.904;2023-02-23T11:37:53;126.95;;;63.92;;
64816;SDS011;53289;45.602;11.904;2023-02-23T11:45:38;108.50;;;56.88;;
64816;SDS011;53289;45.602;11.904;2023-02-23T11:50:49;126.88;;;64.32;;
64816;SDS011;53289;45.602;11.904;2023-02-23T11:53:24;105.75;;;54.95;;
64816;SDS011;53289;45.602;11.904;2023-02-23T11:55:57;111.88;;;56.58;;
64816;SDS011;53289;45.602;11.904;2023-02-23T11:58:35;121.05;;;60.78;;
64816;SDS011;53289;45.602;11.904;2023-02-23T12:01:08;127.93;;;64.13;;
64816;SDS011;53289;45.602;11.904;2023-02-23T12:04:21;118.53;;;61.03;;
64816;SDS011;53289;45.602;11.904;2023-02-23T12:11:33;122.05;;;57.70;;
64816;SDS011;53289;45.602;11.904;2023-02-23T12:14:50;111.22;;;56.85;;
64816;SDS011;53289;45.602;11.904;2023-02-23T12:16:54;127.07;;;63.83;;
64816;SDS011;53289;45.602;11.904;2023-02-23T12:19:27;110.43;;;58.95;;
64816;SDS011;53289;45.602;11.904;2023-02-23T12:29:35;114.00;;;59.72;;
64816;SDS011;53289;45.602;11.904;2023-02-23T12:32:17;120.25;;;58.70;;
64816;SDS011;53289;45.602;11.904;2023-02-23T12:43:03;114.95;;;58.42;;
64816;SDS011;53289;45.602;11.904;2023-02-23T12:45:45;116.38;;;60.53;;
64816;SDS011;53289;45.602;11.904;2023-02-23T12:51:49;119.85;;;60.42;;
64816;SDS011;53289;45.602;11.904;2023-02-23T12:53:59;114.88;;;57.65;;
64816;SDS011;53289;45.602;11.904;2023-02-23T12:56:31;110.70;;;54.28;;
64816;SDS011;53289;45.602;11.904;2023-02-23T13:07:14;103.78;;;53.35;;
64816;SDS011;53289;45.602;11.904;2023-02-23T13:15:07;98.43;;;50.63;;
64816;SDS011;53289;45.602;11.904;2023-02-23T13:20:16;113.70;;;56.90;;
64816;SDS011;53289;45.602;11.904;2023-02-23T13:22:57;112.10;;;56.42;;
64816;SDS011;53289;45.602;11.904;2023-02-23T13:28:20;106.50;;;53.67;;
64816;SDS011;53289;45.602;11.904;2023-02-23T13:30:55;104.63;;;53.05;;
64816;SDS011;53289;45.602;11.904;2023-02-23T13:33:26;111.50;;;57.20;;
64816;SDS011;53289;45.602;11.904;2023-02-23T13:35:56;99.60;;;51.75;;
64816;SDS011;53289;45.602;11.904;2023-02-23T13:38:39;107.47;;;55.63;;
64816;SDS011;53289;45.602;11.904;2023-02-23T13:44:13;104.70;;;55.30;;
64816;SDS011;53289;45.602;11.904;2023-02-23T13:46:56;114.15;;;57.80;;
64816;SDS011;53289;45.602;11.904;2023-02-23T13:49:39;109.30;;;55.53;;
64816;SDS011;53289;45.602;11.904;2023-02-23T13:52:28;108.65;;;56.13;;
64816;SDS011;53289;45.602;11.904;2023-02-23T13:54:58;104.32;;;54.72;;
64816;SDS011;53289;45.602;11.904;2023-02-23T13:57:29;112.03;;;55.92;;
64816;SDS011;53289;45.602;11.904;2023-02-23T13:59:57;107.20;;;55.78;;
64816;SDS011;53289;45.602;11.904;2023-02-23T14:02:39;105.47;;;54.05;;
64816;SDS011;53289;45.602;11.904;2023-02-23T14:05:22;96.90;;;51.70;;
64816;SDS011;53289;45.602;11.904;2023-02-23T14:07:53;99.05;;;51.15;;
64816;SDS011;53289;45.602;11.904;2023-02-23T14:10:39;108.75;;;56.40;;
64816;SDS011;53289;45.602;11.904;2023-02-23T14:15:43;111.20;;;57.83;;
64816;SDS011;53289;45.602;11.904;2023-02-23T14:21:00;113.00;;;58.33;;
64816;SDS011;53289;45.602;11.904;2023-02-23T14:32:02;111.65;;;58.55;;
64816;SDS011;53289;45.602;11.904;2023-02-23T14:34:53;111.88;;;57.78;;
64816;SDS011;53289;45.602;11.904;2023-02-23T14:42:45;107.05;;;54.95;;
64816;SDS011;53289;45.602;11.904;2023-02-23T14:45:22;114.18;;;58.10;;
64816;SDS011;53289;45.602;11.904;2023-02-23T14:47:52;129.60;;;64.15;;
64816;SDS011;53289;45.602;11.904;2023-02-23T14:50:33;120.63;;;63.57;;
64816;SDS011;53289;45.602;11.904;2023-02-23T14:53:02;121.97;;;62.28;;
64816;SDS011;53289;45.602;11.904;2023-02-23T14:55:33;123.13;;;62.60;;
64816;SDS011;53289;45.602;11.904;2023-02-23T14:58:02;119.80;;;61.00;;
64816;SDS011;53289;45.602;11.904;2023-02-23T15:00:44;116.25;;;60.35;;
64816;SDS011;53289;45.602;11.904;2023-02-23T15:03:10;127.32;;;62.40;;
64816;SDS011;53289;45.602;11.904;2023-02-23T15:05:41;116.93;;;60.38;;
64816;SDS011;53289;45.602;11.904;2023-02-23T15:08:15;128.15;;;61.65;;
64816;SDS011;53289;45.602;11.904;2023-02-23T15:10:45;126.28;;;63.78;;
64816;SDS011;53289;45.602;11.904;2023-02-23T15:13:31;124.43;;;61.08;;
64816;SDS011;53289;45.602;11.904;2023-02-23T15:16:02;123.97;;;59.75;;
64816;SDS011;53289;45.602;11.904;2023-02-23T15:18:38;123.82;;;62.53;;
64816;SDS011;53289;45.602;11.904;2023-02-23T15:21:10;124.20;;;60.42;;
64816;SDS011;53289;45.602;11.904;2023-02-23T15:23:40;123.03;;;59.97;;
64816;SDS011;53289;45.602;11.904;2023-02-23T15:28:41;125.65;;;59.58;;
64816;SDS011;53289;45.602;11.904;2023-02-23T15:31:12;122.50;;;61.47;;
64816;SDS011;53289;45.602;11.904;2023-02-23T15:33:38;127.93;;;63.30;;
64816;SDS011;53289;45.602;11.904;2023-02-23T15:36:08;124.70;;;60.42;;
64816;SDS011;53289;45.602;11.904;2023-02-23T15:38:41;119.82;;;58.50;;
64816;SDS011;53289;45.602;11.904;2023-02-23T15:41:16;111.70;;;56.22;;
64816;SDS011;53289;45.602;11.904;2023-02-23T15:43:51;111.63;;;56.17;;
64816;SDS011;53289;45.602;11.904;2023-02-23T15:46:23;108.82;;;54.28;;
64816;SDS011;53289;45.602;11.904;2023-02-23T15:48:52;103.13;;;54.55;;
64816;SDS011;53289;45.602;11.904;2023-02-23T15:53:57;102.35;;;49.92;;
64816;SDS011;53289;45.602;11.904;2023-02-23T15:56:27;95.05;;;49.08;;
64816;SDS011;53289;45.602;11.904;2023-02-23T15:59:00;93.80;;;50.88;;
64816;SDS011;53289;45.602;11.904;2023-02-23T16:01:31;92.22;;;49.30;;
64816;SDS011;53289;45.602;11.904;2023-02-23T16:11:59;87.75;;;48.17;;
64816;SDS011;53289;45.602;11.904;2023-02-23T16:17:24;89.63;;;47.33;;
64816;SDS011;53289;45.602;11.904;2023-02-23T16:20:54;87.18;;;46.72;;
64816;SDS011;53289;45.602;11.904;2023-02-23T16:23:24;97.20;;;47.45;;
64816;SDS011;53289;45.602;11.904;2023-02-23T16:26:08;83.97;;;45.63;;
64816;SDS011;53289;45.602;11.904;2023-02-23T16:28:40;90.07;;;46.45;;
64816;SDS011;53289;45.602;11.904;2023-02-23T16:31:07;90.55;;;47.10;;
64816;SDS011;53289;45.602;11.904;2023-02-23T16:33:43;87.10;;;47.75;;
64816;SDS011;53289;45.602;11.904;2023-02-23T16:36:17;87.97;;;46.10;;
64816;SDS011;53289;45.602;11.904;2023-02-23T16:41:28;95.38;;;48.60;;
64816;SDS011;53289;45.602;11.904;2023-02-23T16:43:57;122.28;;;59.70;;
64816;SDS011;53289;45.602;11.904;2023-02-23T16:49:32;115.40;;;55.20;;
64816;SDS011;53289;45.602;11.904;2023-02-23T16:51:58;113.32;;;53.97;;
64816;SDS011;53289;45.602;11.904;2023-02-23T16:54:25;98.78;;;49.53;;
64816;SDS011;53289;45.602;11.904;2023-02-23T16:56:52;93.80;;;48.90;;
64816;SDS011;53289;45.602;11.904;2023-02-23T16:59:20;97.90;;;51.55;;
64816;SDS011;53289;45.602;11.904;2023-02-23T17:01:47;104.10;;;48.63;;
64816;SDS011;53289;45.602;11.904;2023-02-23T17:04:15;92.22;;;47.20;;
64816;SDS011;53289;45.602;11.904;2023-02-23T17:06:43;91.80;;;47.33;;